Time;durP1;ratioP1;P1;durP2;ratioP2;P2;SDS_P1;SDS_P2;PMS_P1;PMS_P2;Temp;Humidity;BMP_temperature;BMP_pressure;BME280_temperature;BME280_humidity;BME280_pressure;Samples;Min_cycle;Max_cycle;Signal;HPM_P1;HPM_P2
2023/01/01 00:02:00;;;;;;;18.30;9.40;;;;;;;16.75;51.90;100190.69;105548;1294;72222;-72
2023/01/01 00:04:27;;;;;;;9.80;3.40;;;;;;;16.78;50.71;100199.39;105515;1294;58960;-73
2023/01/01 00:06:54;;;;;;;8.20;3.80;;;;;;;16.80;50.70;100195.23;105422;1289;60428;-73
2023/01/01 00:12:05;;;;;;;10.20;4.00;;;;;;;16.82;51.04;100189.08;105542;1294;69693;-74
2023/01/01 00:14:32;;;;;;;11.00;4.00;;;;;;;16.80;50.50;100204.59;105528;1293;71855;-73
2023/01/01 00:16:59;;;;;;;9.70;3.50;;;;;;;16.83;50.75;100202.34;105446;1288;61411;-73
2023/01/01 00:19:25;;;;;;;10.10;3.30;;;;;;;16.82;50.69;100202.31;105002;1294;58886;-75
2023/01/01 00:21:52;;;;;;;8.50;3.10;;;;;;;16.83;50.66;100216.28;105301;1297;75155;-74
2023/01/01 00:24:19;;;;;;;9.40;3.10;;;;;;;16.85;50.58;100204.42;105482;1290;70697;-75
2023/01/01 00:26:45;;;;;;;7.70;2.80;;;;;;;16.85;50.28;100208.70;105574;1288;58869;-75
2023/01/01 00:29:12;;;;;;;9.80;3.20;;;;;;;16.86;50.50;100206.80;105485;1290;59879;-75
2023/01/01 00:31:38;;;;;;;6.30;2.60;;;;;;;16.85;50.45;100211.13;105416;1297;59278;-76
2023/01/01 00:34:05;;;;;;;8.20;2.90;;;;;;;16.88;50.30;100213.20;105328;1298;75957;-75
2023/01/01 00:36:31;;;;;;;8.70;2.90;;;;;;;16.91;50.64;100211.38;105620;1294;59064;-73
2023/01/01 00:38:58;;;;;;;9.30;2.90;;;;;;;16.89;50.75;100217.55;105487;1295;70651;-74
2023/01/01 00:41:24;;;;;;;8.10;2.80;;;;;;;16.86;50.43;100235.92;105392;1290;59336;-74
2023/01/01 00:43:51;;;;;;;9.80;2.80;;;;;;;16.89;50.32;100223.73;105525;1295;58920;-73
2023/01/01 00:46:17;;;;;;;8.30;2.90;;;;;;;16.93;50.22;100210.73;105494;1294;59236;-76
2023/01/01 00:48:44;;;;;;;7.90;2.70;;;;;;;16.95;50.46;100197.22;105493;1296;69665;-74
2023/01/01 00:51:11;;;;;;;6.80;2.40;;;;;;;16.94;50.39;100202.02;105528;1295;58937;-75
2023/01/01 00:53:37;;;;;;;7.50;2.40;;;;;;;16.97;49.89;100202.30;105376;1297;59371;-75
2023/01/01 00:56:04;;;;;;;9.50;2.80;;;;;;;17.01;49.79;100211.85;105532;1296;60110;-74
2023/01/01 00:58:31;;;;;;;7.90;2.80;;;;;;;17.04;49.70;100224.16;105404;1294;73228;-76
2023/01/01 01:00:58;;;;;;;8.10;2.80;;;;;;;17.06;49.95;100205.16;105437;1293;70227;-76
2023/01/01 01:03:27;;;;;;;8.40;3.00;;;;;;;17.06;49.90;100212.58;105507;1296;72631;-76
2023/01/01 01:05:58;;;;;;;7.30;2.40;;;;;;;17.07;49.63;100218.17;105323;1293;59792;-77
2023/01/01 01:08:33;;;;;;;7.60;2.70;;;;;;;17.08;49.96;100211.50;105534;1293;60589;-75
2023/01/01 01:11:15;;;;;;;8.50;2.70;;;;;;;17.05;50.02;100219.41;105504;1290;74113;-75
2023/01/01 01:13:43;;;;;;;7.90;2.90;;;;;;;17.05;50.17;100218.83;105511;1288;71734;-75
2023/01/01 01:16:12;;;;;;;11.30;3.40;;;;;;;17.01;50.28;100232.88;105503;1294;72345;-75
2023/01/01 01:18:39;;;;;;;10.50;3.00;;;;;;;17.00;50.26;100223.58;105506;1285;58972;-74
2023/01/01 01:21:06;;;;;;;7.30;2.80;;;;;;;17.00;50.32;100227.52;105657;1294;59061;-74
2023/01/01 01:23:33;;;;;;;8.30;2.40;;;;;;;17.00;50.53;100226.09;105370;1294;74238;-75
2023/01/01 01:26:08;;;;;;;7.10;2.50;;;;;;;16.99;50.47;100233.23;105485;1288;69598;-75
2023/01/01 01:28:35;;;;;;;7.90;2.60;;;;;;;17.00;50.57;100224.64;105512;1295;71767;-75
2023/01/01 01:31:01;;;;;;;7.80;2.70;;;;;;;16.97;50.78;100228.98;105645;1285;58942;-76
2023/01/01 01:33:28;;;;;;;8.20;2.70;;;;;;;16.97;50.71;100234.29;105509;1290;59052;-75
2023/01/01 01:35:54;;;;;;;9.60;2.90;;;;;;;16.97;50.68;100238.22;105532;1294;74172;-76
2023/01/01 01:38:21;;;;;;;9.20;2.70;;;;;;;16.95;50.84;100235.39;105461;1297;69444;-76
2023/01/01 01:40:48;;;;;;;10.00;2.90;;;;;;;16.95;51.03;100237.91;105639;1295;58912;-75
2023/01/01 01:43:44;;;;;;;7.70;2.60;;;;;;;16.94;50.69;100243.82;105359;1293;60262;-75
2023/01/01 01:46:30;;;;;;;6.00;2.20;;;;;;;16.94;50.47;100250.03;105423;1290;59406;-75
2023/01/01 01:49:01;;;;;;;9.80;3.00;;;;;;;16.96;50.44;100243.17;105405;1290;74675;-75
2023/01/01 01:51:37;;;;;;;8.80;2.90;;;;;;;16.95;50.30;100248.63;105398;1289;71152;-76
2023/01/01 01:54:09;;;;;;;7.20;2.60;;;;;;;16.94;50.46;100245.52;105504;1290;72053;-75
2023/01/01 01:56:45;;;;;;;7.50;2.30;;;;;;;16.94;50.64;100237.39;105458;1293;59389;-76
2023/01/01 01:59:12;;;;;;;7.20;2.60;;;;;;;16.91;50.77;100239.08;105659;1293;58886;-75
2023/01/01 02:01:39;;;;;;;8.80;2.50;;;;;;;16.89;50.84;100237.29;105497;1297;74443;-76
2023/01/01 02:04:06;;;;;;;8.40;2.70;;;;;;;16.87;51.01;100237.48;105387;1291;70918;-76
2023/01/01 02:06:34;;;;;;;8.20;2.60;;;;;;;16.84;50.83;100229.70;105648;1293;71102;-75
2023/01/01 02:09:04;;;;;;;7.70;2.80;;;;;;;16.82;50.57;100231.45;105423;1290;58936;-76
2023/01/01 02:11:30;;;;;;;8.50;3.00;;;;;;;16.80;50.80;100223.55;105397;1290;59919;-76
2023/01/01 02:13:59;;;;;;;7.30;2.80;;;;;;;16.78;50.90;100244.67;105626;1291;74080;-77
2023/01/01 02:16:46;;;;;;;7.30;2.70;;;;;;;16.77;51.14;100233.64;105436;1296;71455;-76
2023/01/01 02:19:24;;;;;;;6.60;2.50;;;;;;;16.71;51.03;100237.34;105646;1295;73140;-76
2023/01/01 02:22:28;;;;;;;8.70;2.70;;;;;;;16.67;50.97;100230.55;105542;1287;60124;-76
2023/01/01 02:25:17;;;;;;;6.30;2.60;;;;;;;16.65;50.74;100242.08;105567;1290;59521;-75
2023/01/01 02:27:58;;;;;;;8.60;2.60;;;;;;;16.68;50.68;100249.08;105407;1290;72853;-75
2023/01/01 02:30:28;;;;;;;9.30;2.90;;;;;;;16.67;50.89;100242.12;105596;1287;72466;-76
2023/01/01 02:33:02;;;;;;;9.80;2.70;;;;;;;16.68;50.25;100255.43;105606;1293;73142;-75
2023/01/01 02:35:37;;;;;;;7.80;2.80;;;;;;;16.71;50.18;100248.13;105627;1293;60229;-75
2023/01/01 02:38:08;;;;;;;9.50;2.50;;;;;;;16.72;49.77;100249.77;105484;1295;60295;-75
2023/01/01 02:40:41;;;;;;;7.50;2.60;;;;;;;16.77;49.69;100251.16;105480;1294;72789;-75
2023/01/01 02:43:08;;;;;;;9.50;3.30;;;;;;;16.77;49.86;100244.15;105367;1290;69699;-75
2023/01/01 02:45:34;;;;;;;9.50;2.70;;;;;;;16.75;49.61;100241.09;105591;1285;70528;-76
2023/01/01 02:48:06;;;;;;;8.00;2.70;;;;;;;16.76;49.56;100252.58;105381;1294;60729;-75
2023/01/01 02:50:34;;;;;;;10.70;3.50;;;;;;;16.74;49.55;100245.34;105394;1293;60123;-75
2023/01/01 02:53:08;;;;;;;7.90;2.60;;;;;;;16.72;48.98;100245.04;105647;1294;74471;-75
2023/01/01 02:56:00;;;;;;;7.50;2.50;;;;;;;16.75;48.66;100248.59;105647;1295;70830;-75
2023/01/01 03:01:32;;;;;;;8.40;2.60;;;;;;;16.75;48.87;100248.96;105546;1290;60199;-75
2023/01/01 03:04:20;;;;;;;7.80;2.80;;;;;;;16.74;49.06;100246.05;105445;1293;59694;-76
2023/01/01 03:07:16;;;;;;;8.50;2.80;;;;;;;16.68;49.03;100244.17;105416;1294;74564;-75
2023/01/01 03:10:06;;;;;;;9.20;2.90;;;;;;;16.64;49.32;100249.95;105544;1294;70355;-75
2023/01/01 03:12:45;;;;;;;6.40;2.50;;;;;;;16.61;49.18;100249.66;105338;1298;73189;-75
2023/01/01 03:15:26;;;;;;;9.50;2.60;;;;;;;16.60;49.13;100247.34;105441;1297;59046;-76
2023/01/01 03:18:10;;;;;;;8.40;2.90;;;;;;;16.59;48.82;100257.11;105397;1298;58999;-75
2023/01/01 03:20:41;;;;;;;8.70;3.00;;;;;;;16.61;48.63;100256.41;105566;1294;74871;-75
2023/01/01 03:23:14;;;;;;;8.40;2.80;;;;;;;16.63;48.77;100261.39;105369;1298;69706;-75
2023/01/01 03:25:49;;;;;;;10.10;3.10;;;;;;;16.62;49.10;100254.03;105445;1294;72623;-75
2023/01/01 03:28:27;;;;;;;11.00;3.30;;;;;;;16.55;48.91;100256.36;105406;1291;62096;-75
2023/01/01 03:30:56;;;;;;;12.30;3.10;;;;;;;16.55;49.12;100254.52;105486;1293;59086;-75
2023/01/01 03:33:37;;;;;;;7.60;2.40;;;;;;;16.51;48.73;100251.31;105468;1290;74359;-75
2023/01/01 03:36:06;;;;;;;11.70;2.90;;;;;;;16.50;48.60;100255.56;105502;1295;71368;-75
2023/01/01 03:38:43;;;;;;;9.30;3.70;;;;;;;16.50;48.49;100259.85;105567;1293;71934;-75
2023/01/01 03:41:26;;;;;;;7.80;3.00;;;;;;;16.50;48.70;100256.44;105509;1297;60548;-75
2023/01/01 03:44:02;;;;;;;8.30;2.80;;;;;;;16.47;48.01;100260.22;105462;1290;58814;-75
2023/01/01 03:46:31;;;;;;;9.40;2.80;;;;;;;16.50;47.95;100269.33;105346;1289;72457;-75
2023/01/01 03:48:59;;;;;;;5.90;2.30;;;;;;;16.49;48.08;100265.88;105424;1290;71387;-75
2023/01/01 03:51:54;;;;;;;6.60;2.40;;;;;;;16.46;47.54;100257.19;105506;1295;71506;-75
2023/01/01 03:54:36;;;;;;;6.30;2.60;;;;;;;16.46;47.16;100256.60;105521;1288;59345;-75
2023/01/01 03:57:17;;;;;;;9.60;2.60;;;;;;;16.47;47.45;100246.39;105431;1294;60050;-76
2023/01/01 04:00:08;;;;;;;8.60;2.20;;;;;;;16.43;47.51;100245.48;105598;1286;74932;-75
2023/01/01 04:02:50;;;;;;;8.30;2.50;;;;;;;16.39;47.28;100248.08;105388;1297;71585;-75
2023/01/01 04:05:18;;;;;;;7.50;2.10;;;;;;;16.36;47.14;100252.64;105629;1294;72063;-75
2023/01/01 04:07:46;;;;;;;8.00;2.10;;;;;;;16.33;46.77;100259.64;105342;1285;58804;-75
2023/01/01 04:10:17;;;;;;;6.70;2.30;;;;;;;16.34;46.60;100271.66;105419;1292;59099;-75
2023/01/01 04:12:50;;;;;;;7.90;2.20;;;;;;;16.38;46.36;100260.45;105656;1293;72405;-75
2023/01/01 04:15:18;;;;;;;5.90;1.80;;;;;;;16.38;46.25;100267.86;105446;1297;69551;-75
2023/01/01 04:17:45;;;;;;;6.40;2.20;;;;;;;16.37;46.28;100280.35;105501;1283;72093;-75
2023/01/01 04:20:12;;;;;;;6.40;2.10;;;;;;;16.36;46.49;100263.31;105402;1293;58972;-75
2023/01/01 04:22:39;;;;;;;7.60;1.90;;;;;;;16.32;46.93;100269.79;105391;1287;60746;-75
2023/01/01 04:25:07;;;;;;;5.80;2.00;;;;;;;16.26;47.14;100275.94;105502;1291;58998;-75
2023/01/01 04:27:33;;;;;;;4.10;1.80;;;;;;;16.21;47.65;100275.09;105380;1288;72151;-75
2023/01/01 04:29:59;;;;;;;5.30;2.00;;;;;;;16.13;47.90;100269.09;105514;1294;59347;-75
2023/01/01 04:32:26;;;;;;;8.40;3.10;;;;;;;16.07;48.59;100260.70;105678;1284;59008;-75
2023/01/01 04:34:52;;;;;;;5.00;1.70;;;;;;;15.97;48.84;100273.23;105567;1295;58950;-75
2023/01/01 04:37:19;;;;;;;7.30;1.90;;;;;;;15.92;49.28;100281.30;105708;1294;59328;-75
2023/01/01 04:39:45;;;;;;;5.30;1.90;;;;;;;15.85;49.02;100291.20;105689;1287;58856;-75
2023/01/01 04:42:12;;;;;;;6.90;1.90;;;;;;;15.83;49.06;100287.94;105547;1298;58999;-75
2023/01/01 04:44:38;;;;;;;5.70;2.10;;;;;;;15.83;49.35;100290.61;105545;1290;59068;-76
2023/01/01 04:47:05;;;;;;;6.30;1.90;;;;;;;15.77;49.54;100289.27;105604;1298;59185;-76
2023/01/01 04:49:31;;;;;;;6.20;1.90;;;;;;;15.72;49.77;100291.92;105434;1295;59207;-75
2023/01/01 04:51:58;;;;;;;5.90;2.10;;;;;;;15.67;49.86;100296.96;105548;1295;59145;-75
2023/01/01 04:54:24;;;;;;;5.50;1.90;;;;;;;15.63;49.99;100300.53;105453;1290;59073;-75
2023/01/01 04:56:51;;;;;;;7.00;2.10;;;;;;;15.60;49.87;100303.95;105435;1295;59366;-75
2023/01/01 04:59:17;;;;;;;5.40;1.90;;;;;;;15.59;49.91;100302.88;105525;1291;59150;-76
2023/01/01 05:01:44;;;;;;;5.00;1.90;;;;;;;15.63;49.97;100315.70;105594;1295;58794;-75
2023/01/01 05:04:15;;;;;;;6.60;2.10;;;;;;;15.66;49.75;100312.81;105649;1292;71525;-75
2023/01/01 05:06:42;;;;;;;5.80;1.90;;;;;;;15.67;49.81;100315.55;105369;1292;72830;-75
2023/01/01 05:09:09;;;;;;;4.80;1.60;;;;;;;15.69;49.73;100320.36;105593;1287;59651;-75
2023/01/01 05:11:36;;;;;;;4.90;1.70;;;;;;;15.71;49.57;100320.73;105375;1300;59010;-75
2023/01/01 05:14:03;;;;;;;7.00;2.10;;;;;;;15.72;49.49;100317.60;105499;1294;72856;-75
2023/01/01 05:16:35;;;;;;;7.00;1.80;;;;;;;15.76;49.43;100315.23;105385;1287;68804;-75
2023/01/01 05:19:03;;;;;;;4.90;1.60;;;;;;;15.75;49.78;100315.73;105388;1295;72499;-75
2023/01/01 05:21:32;;;;;;;7.60;1.70;;;;;;;15.73;49.71;100320.85;105413;1293;60129;-75
2023/01/01 05:24:01;;;;;;;4.30;1.70;;;;;;;15.74;49.69;100333.06;105383;1295;60551;-75
2023/01/01 05:26:33;;;;;;;7.60;1.80;;;;;;;15.73;49.79;100330.56;105622;1285;73841;-75
2023/01/01 05:29:00;;;;;;;7.10;2.00;;;;;;;15.71;49.78;100330.55;105393;1296;70406;-76
2023/01/01 05:31:30;;;;;;;4.70;1.50;;;;;;;15.71;49.54;100323.45;105559;1293;72534;-75
2023/01/01 05:33:57;;;;;;;4.50;1.40;;;;;;;15.73;49.65;100321.10;105400;1287;60630;-76
2023/01/01 05:36:37;;;;;;;4.50;1.40;;;;;;;15.71;49.87;100334.92;105503;1295;59828;-76
2023/01/01 05:39:08;;;;;;;5.40;1.50;;;;;;;15.69;49.75;100324.55;105492;1293;74664;-76
2023/01/01 05:41:35;;;;;;;5.60;1.40;;;;;;;15.70;49.60;100328.41;105501;1290;70304;-76
2023/01/01 05:44:04;;;;;;;5.10;1.40;;;;;;;15.71;49.86;100328.95;105633;1287;70429;-76
2023/01/01 05:46:32;;;;;;;4.50;1.40;;;;;;;15.72;50.02;100332.45;105514;1294;60433;-76
2023/01/01 05:48:58;;;;;;;7.90;1.70;;;;;;;15.71;50.06;100331.79;105335;1297;59280;-76
2023/01/01 05:51:27;;;;;;;7.10;1.60;;;;;;;15.70;50.14;100341.37;105666;1292;60291;-76
2023/01/01 05:53:54;;;;;;;4.00;1.40;;;;;;;15.71;50.29;100357.83;105524;1287;70984;-75
2023/01/01 05:56:22;;;;;;;4.40;1.50;;;;;;;15.71;50.23;100373.22;105624;1294;71380;-76
2023/01/01 05:58:48;;;;;;;5.90;1.30;;;;;;;15.74;50.54;100374.70;105277;1299;60093;-76
2023/01/01 06:01:19;;;;;;;4.80;1.30;;;;;;;15.74;50.55;100372.77;105498;1293;60604;-75
2023/01/01 06:03:47;;;;;;;4.30;1.40;;;;;;;15.72;50.45;100374.45;105494;1295;74637;-76
2023/01/01 06:06:24;;;;;;;4.20;1.30;;;;;;;15.72;50.26;100381.83;105521;1280;69561;-75
2023/01/01 06:08:53;;;;;;;5.80;1.30;;;;;;;15.74;50.51;100380.88;105421;1297;70633;-76
2023/01/01 06:11:20;;;;;;;3.90;1.30;;;;;;;15.74;50.35;100388.68;105293;1299;59306;-76
2023/01/01 06:13:47;;;;;;;4.90;1.50;;;;;;;15.74;50.45;100391.69;105496;1294;60371;-75
2023/01/01 06:16:14;;;;;;;5.20;1.30;;;;;;;15.73;50.36;100401.45;105415;1295;73370;-75
2023/01/01 06:18:40;;;;;;;4.70;1.40;;;;;;;15.75;50.18;100386.46;105502;1295;69671;-75
2023/01/01 06:21:11;;;;;;;3.40;1.10;;;;;;;15.75;50.41;100383.38;105341;1291;58861;-76
2023/01/01 06:23:38;;;;;;;3.70;1.20;;;;;;;15.74;50.49;100386.55;105507;1295;59277;-76
2023/01/01 06:26:10;;;;;;;5.00;1.50;;;;;;;15.69;50.43;100384.16;105408;1295;59632;-75
2023/01/01 06:28:37;;;;;;;3.50;1.20;;;;;;;15.67;50.51;100381.79;105383;1295;73750;-75
2023/01/01 06:31:06;;;;;;;4.00;1.30;;;;;;;15.64;50.56;100384.81;105307;1295;70607;-75
2023/01/01 06:33:33;;;;;;;5.20;1.10;;;;;;;15.60;50.55;100387.92;105389;1298;70898;-76
2023/01/01 06:36:04;;;;;;;5.60;1.30;;;;;;;15.58;50.81;100385.39;105405;1293;59271;-76
2023/01/01 06:38:36;;;;;;;4.60;1.30;;;;;;;15.57;51.00;100382.56;105227;1298;336982;-75
2023/01/01 06:41:06;;;;;;;4.60;1.00;;;;;;;15.55;51.02;100381.38;105366;1293;74579;-75
2023/01/01 06:43:34;;;;;;;3.90;1.20;;;;;;;15.54;51.15;100389.86;105396;1297;70235;-75
2023/01/01 06:46:06;;;;;;;3.00;1.00;;;;;;;15.48;50.95;100378.82;105355;1297;71578;-75
2023/01/01 06:48:35;;;;;;;4.60;1.10;;;;;;;15.46;51.39;100387.84;105618;1294;59083;-76
2023/01/01 06:51:07;;;;;;;4.40;1.50;;;;;;;15.43;51.46;100394.52;105480;1295;59871;-75
2023/01/01 06:53:34;;;;;;;4.70;1.20;;;;;;;15.39;51.58;100406.66;105492;1293;75919;-75
2023/01/01 06:56:00;;;;;;;5.40;1.10;;;;;;;15.37;51.60;100403.21;105444;1294;71190;-76
2023/01/01 06:58:27;;;;;;;4.30;1.60;;;;;;;15.36;51.66;100404.09;105589;1285;59454;-76
2023/01/01 07:01:01;;;;;;;4.40;1.10;;;;;;;15.32;51.57;100418.34;105624;1294;59030;-75
2023/01/01 07:03:34;;;;;;;5.00;1.00;;;;;;;15.32;51.83;100426.45;105525;1295;60557;-76
2023/01/01 07:06:00;;;;;;;5.00;1.50;;;;;;;15.29;52.01;100428.43;105519;1295;73970;-75
2023/01/01 07:08:27;;;;;;;5.50;1.20;;;;;;;15.26;52.12;100427.02;105490;1296;59895;-76
2023/01/01 07:10:56;;;;;;;3.70;0.90;;;;;;;15.24;52.47;100431.41;105350;1289;71414;-76
2023/01/01 07:13:24;;;;;;;6.00;1.20;;;;;;;15.21;52.50;100446.02;105231;1297;60055;-75
2023/01/01 07:15:50;;;;;;;5.70;1.20;;;;;;;15.18;52.31;100451.12;105344;1300;59248;-76
2023/01/01 07:18:21;;;;;;;3.50;1.00;;;;;;;15.17;52.44;100454.88;105477;1294;74787;-76
2023/01/01 07:20:51;;;;;;;3.50;1.40;;;;;;;15.14;52.44;100456.82;105513;1293;69822;-76
2023/01/01 07:23:18;;;;;;;3.30;0.90;;;;;;;15.14;52.71;100456.52;105548;1292;71388;-76
2023/01/01 07:25:44;;;;;;;2.80;1.10;;;;;;;15.13;52.96;100456.82;105525;1296;60595;-76
2023/01/01 07:28:12;;;;;;;2.90;1.10;;;;;;;15.09;52.97;100463.16;105464;1293;59135;-76
2023/01/01 07:30:38;;;;;;;4.40;1.10;;;;;;;15.07;53.09;100479.32;105389;1303;73371;-76
2023/01/01 07:33:04;;;;;;;3.90;1.00;;;;;;;15.06;53.16;100484.79;105505;1293;59414;-76
2023/01/01 07:35:31;;;;;;;4.50;1.10;;;;;;;15.06;52.97;100490.30;105481;1294;71760;-76
2023/01/01 07:37:57;;;;;;;3.50;1.10;;;;;;;15.07;53.10;100495.30;105629;1295;59047;-76
2023/01/01 07:40:24;;;;;;;6.30;1.20;;;;;;;15.06;53.24;100488.19;105530;1295;59039;-75
2023/01/01 07:42:50;;;;;;;3.60;1.20;;;;;;;15.05;53.01;100492.44;105526;1294;58945;-76
2023/01/01 07:45:17;;;;;;;4.50;1.10;;;;;;;15.07;52.93;100501.14;105505;1297;59304;-75
2023/01/01 07:47:49;;;;;;;4.80;1.40;;;;;;;15.10;52.96;100506.16;105542;1295;59218;-75
2023/01/01 07:50:16;;;;;;;3.30;1.00;;;;;;;15.13;52.81;100506.02;105627;1293;58982;-75
2023/01/01 07:52:43;;;;;;;4.30;1.10;;;;;;;15.16;52.97;100523.89;105460;1293;59085;-75
2023/01/01 07:55:14;;;;;;;4.60;1.20;;;;;;;15.15;52.93;100537.55;105434;1292;73844;-76
2023/01/01 07:57:42;;;;;;;3.70;1.70;;;;;;;15.15;53.20;100539.14;105311;1296;70229;-75
2023/01/01 08:00:11;;;;;;;4.20;1.10;;;;;;;15.16;53.20;100544.52;105561;1294;71541;-75
2023/01/01 08:02:37;;;;;;;3.80;1.10;;;;;;;15.18;53.03;100547.98;105363;1299;60125;-75
2023/01/01 08:05:04;;;;;;;4.80;1.10;;;;;;;15.22;53.15;100544.44;105644;1293;60387;-75
2023/01/01 08:07:31;;;;;;;4.60;1.10;;;;;;;15.23;53.28;100550.39;105498;1285;74551;-75
2023/01/01 08:09:58;;;;;;;3.40;1.10;;;;;;;15.25;53.59;100560.96;105340;1296;70535;-75
2023/01/01 08:12:24;;;;;;;3.30;1.20;;;;;;;15.24;53.44;100562.43;105411;1296;71091;-75
2023/01/01 08:14:51;;;;;;;3.40;1.30;;;;;;;15.24;53.68;100561.83;105533;1295;60585;-75
2023/01/01 08:17:17;;;;;;;3.40;1.00;;;;;;;15.25;53.80;100562.77;105472;1293;58832;-75
2023/01/01 08:19:45;;;;;;;6.40;1.40;;;;;;;15.25;53.75;100568.45;105536;1294;59016;-75
2023/01/01 08:22:12;;;;;;;3.40;1.30;;;;;;;15.26;54.03;100579.42;105328;1293;70990;-75
2023/01/01 08:24:38;;;;;;;3.90;1.10;;;;;;;15.27;53.83;100587.93;105581;1294;59458;-75
2023/01/01 08:27:05;;;;;;;3.90;1.40;;;;;;;15.27;53.44;100589.70;105663;1285;59035;-75
2023/01/01 08:29:31;;;;;;;2.90;0.90;;;;;;;15.29;53.40;100596.35;105425;1294;59429;-75
2023/01/01 08:31:58;;;;;;;4.60;1.50;;;;;;;15.32;53.43;100590.35;105635;1295;58931;-75
2023/01/01 08:34:24;;;;;;;2.40;1.00;;;;;;;15.34;53.67;100580.63;105546;1295;59228;-75
2023/01/01 08:36:51;;;;;;;3.50;1.00;;;;;;;15.33;53.50;100588.85;105644;1294;59084;-75
2023/01/01 08:39:17;;;;;;;3.40;1.20;;;;;;;15.33;53.33;100588.61;105536;1295;59041;-75
2023/01/01 08:41:44;;;;;;;3.40;1.10;;;;;;;15.32;53.59;100591.20;105680;1292;59436;-75
2023/01/01 08:44:10;;;;;;;4.00;1.30;;;;;;;15.31;53.60;100587.25;105420;1295;58974;-75
2023/01/01 08:46:37;;;;;;;4.00;1.10;;;;;;;15.28;53.57;100597.30;105409;1301;59456;-75
2023/01/01 08:49:03;;;;;;;4.30;1.20;;;;;;;15.28;53.78;100598.74;105639;1294;59122;-75
2023/01/01 08:51:30;;;;;;;6.30;1.40;;;;;;;15.24;53.85;100606.19;105581;1294;58895;-75
2023/01/01 08:53:56;;;;;;;4.00;1.50;;;;;;;15.24;53.87;100612.84;105515;1294;59011;-74
2023/01/01 08:56:23;;;;;;;4.60;1.80;;;;;;;15.23;54.26;100625.21;105644;1295;58952;-73
2023/01/01 08:58:49;;;;;;;2.90;1.20;;;;;;;15.21;53.99;100623.86;105503;1297;59045;-72
2023/01/01 09:01:16;;;;;;;3.50;1.10;;;;;;;15.20;54.03;100640.96;105528;1294;58974;-72
2023/01/01 09:03:42;;;;;;;4.00;1.10;;;;;;;15.20;54.35;100645.29;105500;1288;59346;-73
2023/01/01 09:06:09;;;;;;;3.50;1.00;;;;;;;15.16;54.29;100640.06;105571;1295;58925;-73
2023/01/01 09:08:35;;;;;;;3.80;1.20;;;;;;;15.16;54.58;100648.73;105566;1297;59039;-72
2023/01/01 09:11:02;;;;;;;3.70;1.20;;;;;;;15.13;54.72;100653.59;105639;1287;59163;-72
2023/01/01 09:13:29;;;;;;;3.70;1.10;;;;;;;15.11;54.88;100666.41;105630;1293;71116;-72
2023/01/01 09:15:56;;;;;;;4.50;1.30;;;;;;;15.09;55.06;100659.05;105398;1295;59123;-72
2023/01/01 09:18:23;;;;;;;4.10;1.20;;;;;;;15.08;55.11;100664.08;105543;1293;60278;-72
2023/01/01 09:20:49;;;;;;;3.90;1.00;;;;;;;15.11;55.25;100672.77;105433;1291;72413;-73
2023/01/01 09:23:16;;;;;;;4.50;1.20;;;;;;;15.10;55.04;100665.59;105565;1295;59339;-73
2023/01/01 09:25:42;;;;;;;4.40;1.10;;;;;;;15.12;55.40;100671.63;105485;1296;72424;-73
2023/01/01 09:28:13;;;;;;;3.90;1.20;;;;;;;15.10;55.47;100685.52;105535;1294;59434;-73
2023/01/01 09:30:40;;;;;;;3.00;1.00;;;;;;;15.11;55.59;100697.17;105419;1298;58900;-73
2023/01/01 09:33:06;;;;;;;2.30;1.00;;;;;;;15.06;55.83;100716.05;105523;1295;73892;-73
2023/01/01 09:35:33;;;;;;;3.80;0.90;;;;;;;15.04;56.20;100736.25;105595;1293;69596;-73
2023/01/01 09:37:59;;;;;;;6.80;1.20;;;;;;;15.00;56.73;100729.70;105593;1292;71129;-73
2023/01/01 09:40:55;;;;;;;4.60;0.90;;;;;;;14.95;58.05;100729.69;105322;1297;59332;-74
2023/01/01 09:43:34;;;;;;;4.20;1.30;;;;;;;14.74;60.94;100729.86;105342;1293;59410;-73
2023/01/01 09:46:09;;;;;;;2.70;1.00;;;;;;;14.56;62.38;100742.44;105505;1287;74378;-73
2023/01/01 09:48:40;;;;;;;3.70;1.10;;;;;;;14.35;62.99;100746.52;105506;1293;69871;-73
2023/01/01 09:51:14;;;;;;;3.60;1.10;;;;;;;14.21;64.15;100775.71;105490;1287;71428;-73
2023/01/01 09:54:09;;;;;;;3.60;1.10;;;;;;;14.06;65.54;100794.23;105484;1294;63119;-73
2023/01/01 09:56:39;;;;;;;5.80;1.30;;;;;;;13.85;67.50;100791.28;105559;1291;59696;-73
2023/01/01 09:59:09;;;;;;;1.90;1.00;;;;;;;13.71;68.14;100785.77;105397;1295;74799;-74
2023/01/01 10:01:48;;;;;;;5.20;1.20;;;;;;;13.57;68.26;100784.95;105664;1295;69743;-73
2023/01/01 10:04:29;;;;;;;3.80;0.90;;;;;;;13.49;68.30;100788.70;105643;1292;71156;-73
2023/01/01 10:07:33;;;;;;;4.30;1.30;;;;;;;13.43;67.72;100785.39;105609;1301;62057;-73
2023/01/01 10:10:31;;;;;;;4.10;1.10;;;;;;;13.42;68.14;100779.37;105487;1293;59262;-73
2023/01/01 10:13:24;;;;;;;3.60;0.90;;;;;;;13.36;69.26;100793.39;105587;1292;74730;-73
2023/01/01 10:16:07;;;;;;;4.20;0.80;;;;;;;13.31;70.60;100801.83;105650;1292;70925;-74
2023/01/01 10:18:37;;;;;;;3.70;1.20;;;;;;;13.24;72.44;100802.42;105589;1292;72450;-74
2023/01/01 10:21:07;;;;;;;4.70;1.20;;;;;;;13.12;74.25;100798.33;105469;1294;60980;-74
2023/01/01 10:23:48;;;;;;;4.40;1.50;;;;;;;12.94;76.16;100797.88;105613;1288;60106;-74
2023/01/01 10:26:18;;;;;;;4.40;1.60;;;;;;;12.75;77.42;100799.17;105391;1298;74663;-74
2023/01/01 10:28:53;;;;;;;3.80;1.30;;;;;;;12.59;78.71;100808.52;105483;1295;71311;-74
2023/01/01 10:31:28;;;;;;;3.70;1.70;;;;;;;12.47;79.69;100810.52;105619;1284;71426;-73
2023/01/01 10:33:55;;;;;;;3.50;1.50;;;;;;;12.38;80.56;100805.39;105605;1292;60707;-73
2023/01/01 10:36:21;;;;;;;3.80;1.00;;;;;;;12.32;81.10;100802.80;105410;1294;61811;-74
2023/01/01 10:38:49;;;;;;;4.80;1.70;;;;;;;12.27;81.82;100803.68;105469;1293;74556;-74
2023/01/01 10:41:17;;;;;;;3.40;1.00;;;;;;;12.24;82.48;100814.67;105524;1293;69735;-74
2023/01/01 10:43:47;;;;;;;4.60;1.40;;;;;;;12.19;82.95;100829.46;105510;1293;71238;-74
2023/01/01 10:46:20;;;;;;;5.20;1.60;;;;;;;12.17;83.05;100835.25;105413;1286;60423;-73
2023/01/01 10:49:12;;;;;;;4.80;1.50;;;;;;;12.16;83.31;100836.73;105509;1292;59250;-73
2023/01/01 10:51:45;;;;;;;4.50;1.30;;;;;;;12.17;83.50;100843.34;105412;1288;74824;-73
2023/01/01 10:54:33;;;;;;;4.40;1.20;;;;;;;12.19;83.55;100852.34;105498;1293;70342;-73
2023/01/01 10:57:14;;;;;;;4.90;1.40;;;;;;;12.14;85.04;100848.95;105335;1295;71001;-73
2023/01/01 10:59:42;;;;;;;4.70;1.60;;;;;;;12.01;87.67;100859.85;105638;1285;62493;-73
2023/01/01 11:02:26;;;;;;;3.60;1.50;;;;;;;11.92;89.10;100851.05;105542;1294;60213;-73
2023/01/01 11:05:29;;;;;;;3.50;1.40;;;;;;;11.78;90.55;100848.80;105422;1288;73211;-73
2023/01/01 11:07:55;;;;;;;5.80;1.80;;;;;;;11.66;91.58;100855.45;105064;1301;68847;-73
2023/01/01 11:10:28;;;;;;;5.30;2.00;;;;;;;11.64;91.77;100851.42;105377;1303;60506;-73
2023/01/01 11:12:54;;;;;;;6.00;2.10;;;;;;;11.62;92.19;100844.61;105387;1290;59616;-73
2023/01/01 11:15:40;;;;;;;5.00;2.10;;;;;;;11.62;92.01;100841.91;105646;1288;59043;-73
2023/01/01 11:18:24;;;;;;;4.70;1.80;;;;;;;11.64;91.61;100831.59;105402;1297;76162;-73
2023/01/01 11:20:56;;;;;;;4.50;1.80;;;;;;;11.69;91.48;100825.63;105351;1297;71092;-71
2023/01/01 11:23:37;;;;;;;5.00;1.70;;;;;;;11.71;91.21;100823.48;105584;1294;71498;-73
2023/01/01 11:26:13;;;;;;;4.40;1.50;;;;;;;11.80;90.62;100813.95;105392;1297;61737;-73
2023/01/01 11:28:40;;;;;;;5.20;1.40;;;;;;;11.85;89.48;100823.48;105597;1301;61443;-73
2023/01/01 11:31:17;;;;;;;4.80;1.50;;;;;;;11.84;87.33;100831.89;105351;1297;74810;-73
2023/01/01 11:33:55;;;;;;;5.60;1.40;;;;;;;11.86;86.60;100822.27;105399;1297;69907;-73
2023/01/01 11:36:24;;;;;;;5.80;1.40;;;;;;;11.87;85.97;100820.77;105296;1297;71966;-73
2023/01/01 11:39:05;;;;;;;4.80;1.30;;;;;;;11.86;85.56;100826.23;105403;1294;61879;-74
2023/01/01 11:42:02;;;;;;;3.40;1.10;;;;;;;11.83;85.04;100827.04;105411;1290;59938;-73